Time;durP1;ratioP1;P1;durP2;ratioP2;P2;SDS_P1;SDS_P2;PMS_P1;PMS_P2;Temp;Humidity;BMP_temperature;BMP_pressure;BME280_temperature;BME280_humidity;BME280_pressure;Samples;Min_cycle;Max_cycle;Signal;HPM_P1;HPM_P2
2022/12/05 00:01:39;;;;;;;19.15;8.40;;;;;;;4.58;79.30;100673.88;5042958;28;20567;-55
2022/12/05 00:04:09;;;;;;;17.08;7.57;;;;;;;4.60;80.04;100673.91;5033773;28;20048;-52
2022/12/05 00:06:38;;;;;;;19.27;7.43;;;;;;;4.63;79.22;100672.31;5035337;28;20053;-50
2022/12/05 00:09:06;;;;;;;18.63;7.45;;;;;;;4.65;79.43;100672.34;5040897;28;20064;-53
2022/12/05 00:11:36;;;;;;;15.63;7.13;;;;;;;4.69;79.49;100678.47;5055356;28;20131;-51
2022/12/05 00:14:04;;;;;;;18.10;7.13;;;;;;;4.69;79.79;100673.34;5039604;28;20053;-51
2022/12/05 00:16:32;;;;;;;11.82;5.88;;;;;;;4.69;79.26;100676.75;5039347;28;20647;-53
2022/12/05 00:19:00;;;;;;;13.40;6.20;;;;;;;4.71;79.09;100676.81;5047438;28;20535;-49
2022/12/05 00:21:29;;;;;;;12.48;6.93;;;;;;;4.72;79.29;100681.13;5057050;28;20091;-54
2022/12/05 00:23:57;;;;;;;14.73;6.32;;;;;;;4.70;79.41;100686.19;5040549;28;20053;-52
2022/12/05 00:26:25;;;;;;;11.75;5.85;;;;;;;4.68;80.11;100682.72;5040065;28;20127;-51
2022/12/05 00:28:52;;;;;;;12.60;5.05;;;;;;;4.68;79.61;100676.72;5022642;28;20084;-51
2022/12/05 00:31:21;;;;;;;12.60;4.53;;;;;;;4.69;79.76;100683.63;5046635;28;20399;-51
2022/12/05 00:33:50;;;;;;;15.85;6.53;;;;;;;4.71;79.56;100679.38;5055827;28;20052;-50
2022/12/05 00:38:54;;;;;;;13.82;4.72;;;;;;;4.74;80.01;100688.06;5056669;28;20414;-52
2022/12/05 00:41:23;;;;;;;14.65;4.40;;;;;;;4.76;80.49;100685.53;5014021;28;20079;-55
2022/12/05 00:43:51;;;;;;;15.25;5.07;;;;;;;4.77;79.90;100687.28;5038716;28;20079;-51
2022/12/05 00:46:22;;;;;;;16.33;4.80;;;;;;;4.79;79.74;100685.63;5040151;28;20459;-53
2022/12/05 00:48:51;;;;;;;13.52;4.60;;;;;;;4.80;79.39;100683.94;5030663;28;20165;-50
2022/12/05 00:51:21;;;;;;;15.25;5.63;;;;;;;4.82;79.98;100685.72;5033180;28;20552;-52
2022/12/05 00:53:49;;;;;;;10.10;3.53;;;;;;;4.82;79.68;100675.47;5030744;28;20076;-55
2022/12/05 00:56:23;;;;;;;17.35;5.20;;;;;;;4.82;79.88;100685.72;5035761;28;20081;-53
2022/12/05 00:58:52;;;;;;;14.40;5.03;;;;;;;4.83;79.86;100674.63;5037151;28;20198;-50
2022/12/05 01:03:57;;;;;;;17.77;7.50;;;;;;;4.84;79.58;100685.78;5019177;28;20403;-54
2022/12/05 01:06:25;;;;;;;15.45;6.00;;;;;;;4.83;79.37;100684.91;4980940;28;20628;-54
2022/12/05 01:08:53;;;;;;;12.80;6.60;;;;;;;4.84;79.94;100684.09;4979267;28;20077;-51
2022/12/05 01:11:20;;;;;;;16.27;6.82;;;;;;;4.85;79.43;100688.41;4980380;28;20137;-50
2022/12/05 01:13:48;;;;;;;16.55;6.57;;;;;;;4.84;79.77;100684.09;4980995;28;20145;-54
2022/12/05 01:16:19;;;;;;;16.00;7.38;;;;;;;4.86;79.16;100682.44;4978809;28;20050;-53
2022/12/05 01:18:46;;;;;;;18.40;7.53;;;;;;;4.85;79.48;100678.13;4995174;28;20059;-50
2022/12/05 01:21:13;;;;;;;17.08;7.22;;;;;;;4.86;78.68;100667.03;4978287;28;20086;-55
2022/12/05 01:23:39;;;;;;;16.00;6.97;;;;;;;4.86;78.99;100678.97;4981085;28;20116;-52
2022/12/05 01:26:09;;;;;;;14.77;7.43;;;;;;;4.87;79.45;100679.03;4982165;28;20074;-53
2022/12/05 01:28:36;;;;;;;14.13;6.10;;;;;;;4.87;79.02;100676.47;4980652;28;20070;-53
2022/12/05 01:31:07;;;;;;;13.23;7.05;;;;;;;4.87;79.54;100673.91;4983438;28;20058;-53
2022/12/05 01:33:34;;;;;;;13.73;4.95;;;;;;;4.89;79.20;100682.53;4982218;28;20961;-49
2022/12/05 01:36:02;;;;;;;17.20;7.15;;;;;;;4.90;78.80;100685.97;4977636;28;20079;-52
2022/12/05 01:38:29;;;;;;;14.75;6.10;;;;;;;4.89;78.78;100682.53;4980487;28;20109;-53
2022/12/05 01:41:05;;;;;;;16.42;6.63;;;;;;;4.89;79.15;100681.66;4983098;28;20046;-52
2022/12/05 01:43:31;;;;;;;13.00;4.75;;;;;;;4.91;79.16;100686.81;4976616;28;20966;-51
2022/12/05 01:45:58;;;;;;;15.65;7.03;;;;;;;4.89;78.93;100697.06;4977937;28;20640;-51
2022/12/05 01:48:32;;;;;;;15.95;7.30;;;;;;;4.88;78.93;100697.88;4984442;28;20046;-54
2022/12/05 01:50:59;;;;;;;17.77;6.97;;;;;;;4.88;79.44;100706.47;4984720;28;20054;-53
2022/12/05 01:53:28;;;;;;;15.77;7.43;;;;;;;4.88;78.22;100700.44;4979534;28;20051;-52
2022/12/05 01:55:56;;;;;;;17.48;7.53;;;;;;;4.89;79.10;100702.19;4982209;28;20050;-55
2022/12/05 01:58:28;;;;;;;14.77;7.07;;;;;;;4.88;79.35;100711.59;4979477;28;20042;-52
2022/12/05 02:00:54;;;;;;;22.10;8.10;;;;;;;4.85;79.45;100706.38;4977871;28;20130;-52
2022/12/05 02:03:21;;;;;;;13.88;7.30;;;;;;;4.87;79.31;100697.00;4977619;28;20050;-51
2022/12/05 02:05:51;;;;;;;16.13;7.07;;;;;;;4.86;78.38;100700.41;4979142;28;20581;-53
2022/12/05 02:08:18;;;;;;;20.33;7.30;;;;;;;4.84;79.45;100693.47;4978471;28;20062;-50
2022/12/05 02:10:49;;;;;;;19.55;8.73;;;;;;;4.80;79.10;100696.78;4976605;28;20047;-52
2022/12/05 02:16:32;;;;;;;14.30;5.75;;;;;;;4.79;78.48;100700.16;5019188;28;20408;-51
2022/12/05 02:19:17;;;;;;;;;;;;;;;4.72;78.80;100699.09;5000876;28;20134;-50
2022/12/05 02:22:05;;;;;;;15.73;5.63;;;;;;;4.74;79.09;100698.34;4998840;28;20048;-53
2022/12/05 02:41:30;;;;;;;21.33;8.98;;;;;;;5.13;77.57;100709.78;5029394;27;21121;-51
2022/12/05 02:44:22;;;;;;;14.85;6.25;;;;;;;4.94;78.18;100708.34;5022872;28;20500;-53
2022/12/05 02:46:51;;;;;;;17.05;6.25;;;;;;;4.92;78.63;100716.81;5038696;28;20052;-52
2022/12/05 02:49:22;;;;;;;15.77;6.25;;;;;;;4.92;78.49;100711.66;5032096;28;20045;-52
2022/12/05 02:51:53;;;;;;;14.93;6.68;;;;;;;4.90;78.44;100724.50;5036604;28;20485;-52
2022/12/05 02:54:25;;;;;;;12.52;5.35;;;;;;;4.90;79.08;100719.34;5037983;28;20501;-50
2022/12/05 02:56:53;;;;;;;12.68;5.65;;;;;;;4.90;78.50;100719.34;5032955;28;20136;-49
2022/12/05 02:59:20;;;;;;;17.40;6.32;;;;;;;4.90;78.40;100724.50;5037532;28;20463;-51
2022/12/05 03:01:49;;;;;;;20.73;6.72;;;;;;;4.87;79.23;100720.09;5035544;28;20057;-52
2022/12/05 03:04:19;;;;;;;19.38;6.47;;;;;;;4.88;78.92;100724.44;5034282;28;20068;-54
2022/12/05 03:06:52;;;;;;;18.13;7.40;;;;;;;4.87;78.96;100719.25;5036005;28;20045;-53
2022/12/05 03:12:06;;;;;;;18.13;7.93;;;;;;;4.87;79.36;100725.22;5078580;27;20410;-52
2022/12/05 03:14:38;;;;;;;17.55;7.57;;;;;;;4.87;78.68;100725.22;5015603;28;20085;-52
2022/12/05 03:17:11;;;;;;;15.23;7.13;;;;;;;4.87;78.71;100730.38;5011968;28;20119;-52
2022/12/05 03:20:18;;;;;;;16.60;7.90;;;;;;;4.85;79.18;100737.16;5032368;28;20664;-52
2022/12/05 03:22:56;;;;;;;18.15;7.68;;;;;;;4.88;78.42;100736.38;5043865;28;20163;-50
2022/12/05 03:25:29;;;;;;;19.23;7.90;;;;;;;4.86;79.18;100733.78;5033596;28;20084;-55
2022/12/05 03:28:06;;;;;;;17.80;8.52;;;;;;;4.88;79.30;100732.13;5037066;28;20072;-50
2022/12/05 03:30:37;;;;;;;16.17;6.13;;;;;;;4.89;79.29;100732.97;5031876;28;20393;-51
2022/12/05 03:33:11;;;;;;;20.42;8.90;;;;;;;4.90;78.99;100739.88;5019273;28;20140;-51
2022/12/05 03:44:08;;;;;;;19.27;7.65;;;;;;;4.95;79.33;100742.56;5007350;27;20407;-50
2022/12/05 03:47:00;;;;;;;15.25;6.72;;;;;;;4.93;78.72;100739.97;4979076;28;20149;-50
2022/12/05 03:49:40;;;;;;;17.15;6.05;;;;;;;4.95;79.13;100740.91;4998481;28;20133;-51
2022/12/05 03:52:12;;;;;;;18.10;5.80;;;;;;;4.98;79.32;100747.81;4977265;28;20077;-53
2022/12/05 03:54:58;;;;;;;21.40;6.32;;;;;;;4.98;79.41;100747.81;4976252;28;20053;-53
2022/12/05 03:57:31;;;;;;;16.60;6.55;;;;;;;5.01;79.82;100747.91;4988826;28;20388;-51
2022/12/05 04:00:04;;;;;;;18.33;6.35;;;;;;;5.03;79.99;100745.41;4979517;28;20074;-48
2022/12/05 04:02:44;;;;;;;16.48;6.70;;;;;;;5.01;79.61;100742.78;5000577;28;20053;-50
2022/12/05 04:05:18;;;;;;;15.20;6.00;;;;;;;5.02;79.25;100749.66;4988352;28;20506;-51
2022/12/05 04:07:47;;;;;;;14.25;5.40;;;;;;;5.05;79.28;100748.88;4989770;28;20074;-51
2022/12/05 04:10:21;;;;;;;17.30;6.05;;;;;;;5.04;79.12;100745.44;4993821;28;20053;-51
2022/12/05 04:12:51;;;;;;;21.05;6.63;;;;;;;5.05;79.45;100749.75;4991844;28;20050;-52
2022/12/05 04:15:26;;;;;;;15.85;6.00;;;;;;;5.07;79.83;100752.38;4991908;28;20042;-52
2022/12/05 04:23:24;;;;;;;15.10;5.18;;;;;;;5.11;79.51;100749.97;5070566;28;20475;-52
2022/12/05 04:31:36;;;;;;;17.65;5.80;;;;;;;5.14;80.24;100752.59;5017676;27;20415;-52
2022/12/05 04:34:06;;;;;;;15.63;7.03;;;;;;;5.17;80.38;100758.66;4997667;28;20521;-54
2022/12/05 04:36:39;;;;;;;14.77;5.45;;;;;;;5.18;79.65;100760.41;4994369;28;20070;-54
2022/12/05 04:39:12;;;;;;;14.02;5.20;;;;;;;5.19;80.09;100757.00;4996086;28;20132;-52
2022/12/05 04:44:27;;;;;;;15.15;6.15;;;;;;;5.22;80.52;100767.38;5059646;27;20408;-54
2022/12/05 04:46:56;;;;;;;11.77;4.93;;;;;;;5.23;79.72;100769.09;5005266;28;20460;-53
2022/12/05 04:49:26;;;;;;;14.48;5.43;;;;;;;5.24;79.74;100770.88;5011434;28;20045;-51
2022/12/05 04:51:56;;;;;;;15.93;7.40;;;;;;;5.25;80.63;100763.22;5008579;28;20141;-53
2022/12/05 04:54:28;;;;;;;13.15;6.45;;;;;;;5.27;79.48;100765.84;4996389;28;20070;-51
2022/12/05 04:57:03;;;;;;;13.98;6.10;;;;;;;5.28;80.71;100757.31;4996026;28;20081;-53
2022/12/05 04:59:30;;;;;;;11.30;4.05;;;;;;;5.29;80.83;100764.19;4992757;28;21357;-53
2022/12/05 05:02:04;;;;;;;12.43;4.57;;;;;;;5.30;80.84;100763.34;4997932;28;20145;-51
2022/12/05 05:04:36;;;;;;;10.05;5.53;;;;;;;5.32;79.89;100765.97;4999106;28;20565;-53
2022/12/05 05:07:06;;;;;;;12.45;5.43;;;;;;;5.32;79.45;100764.28;4996612;28;20182;-54
2022/12/05 05:09:34;;;;;;;13.45;5.38;;;;;;;5.34;80.28;100772.88;5001589;28;20045;-50
2022/12/05 05:12:01;;;;;;;9.57;5.20;;;;;;;5.34;80.77;100772.88;5009221;28;20080;-55
2022/12/05 05:14:28;;;;;;;7.88;3.67;;;;;;;5.33;79.97;100766.00;5014788;28;20117;-51
2022/12/05 05:16:55;;;;;;;12.25;5.18;;;;;;;5.36;80.09;100776.38;5012528;28;20057;-54
2022/12/05 05:19:22;;;;;;;10.35;5.30;;;;;;;5.37;79.81;100772.97;5014695;28;20042;-53
2022/12/05 05:21:50;;;;;;;11.57;4.93;;;;;;;5.39;81.04;100771.34;5015916;28;20077;-50
2022/12/05 05:24:18;;;;;;;8.93;4.65;;;;;;;5.37;81.12;100767.84;5016324;28;20138;-53
2022/12/05 05:26:45;;;;;;;9.23;4.68;;;;;;;5.41;80.98;100768.81;5017941;28;21022;-54
2022/12/05 05:29:13;;;;;;;8.90;4.63;;;;;;;5.43;80.80;100774.00;5027448;28;20172;-52
2022/12/05 05:31:40;;;;;;;7.60;4.07;;;;;;;5.42;79.95;100774.81;5012905;28;20068;-51
2022/12/05 05:34:08;;;;;;;9.50;4.60;;;;;;;5.42;80.71;100783.41;5025696;28;20057;-51
2022/12/05 05:36:37;;;;;;;7.75;4.22;;;;;;;5.42;81.17;100770.56;5012821;28;20046;-51
2022/12/05 05:39:05;;;;;;;11.05;5.15;;;;;;;5.44;81.30;100778.31;5012643;28;20103;-53
2022/12/05 05:41:34;;;;;;;9.50;5.68;;;;;;;5.42;80.69;100779.94;5015119;28;20071;-49
2022/12/05 05:44:02;;;;;;;8.70;3.78;;;;;;;5.42;81.50;100774.81;5009378;28;20198;-54
2022/12/05 05:46:32;;;;;;;7.03;3.75;;;;;;;5.42;81.28;100779.94;5014062;28;20137;-49
2022/12/05 05:48:59;;;;;;;13.15;4.90;;;;;;;5.46;81.05;100776.66;5014301;28;20125;-54
2022/12/05 05:51:28;;;;;;;12.52;5.20;;;;;;;5.46;80.20;100779.22;5015295;28;20128;-55
2022/12/05 05:53:56;;;;;;;8.40;4.70;;;;;;;5.45;80.41;100780.94;5015907;28;20045;-50
2022/12/05 05:56:22;;;;;;;11.25;5.00;;;;;;;5.48;80.38;100782.72;5000950;28;20135;-51
2022/12/05 05:58:59;;;;;;;9.82;4.38;;;;;;;5.48;80.65;100783.59;5003376;28;20049;-54
2022/12/05 06:01:27;;;;;;;9.18;4.72;;;;;;;5.50;81.07;100783.63;4996267;28;20092;-52
2022/12/05 06:03:54;;;;;;;8.88;3.83;;;;;;;5.51;81.28;100787.97;5001771;28;20054;-54
2022/12/05 06:06:21;;;;;;;13.27;4.40;;;;;;;5.52;80.41;100790.56;4996900;28;20145;-52
2022/12/05 06:08:48;;;;;;;8.95;4.25;;;;;;;5.53;81.45;100791.44;4996838;28;20133;-51
2022/12/05 06:11:18;;;;;;;8.07;4.20;;;;;;;5.56;80.45;100795.78;5000212;28;20080;-53
2022/12/05 06:13:53;;;;;;;7.43;4.15;;;;;;;5.55;80.56;100802.63;4998401;28;20065;-49
2022/12/05 06:16:20;;;;;;;5.97;3.30;;;;;;;5.59;80.93;100803.59;4998465;28;20073;-53
2022/12/05 06:18:48;;;;;;;7.80;3.88;;;;;;;5.60;80.09;100803.63;4998020;28;20053;-51
2022/12/05 06:21:16;;;;;;;7.53;5.38;;;;;;;5.61;81.31;100807.94;5000262;28;20513;-50
2022/12/05 06:23:42;;;;;;;10.30;3.30;;;;;;;5.62;80.80;100809.72;4996041;28;20053;-53
2022/12/05 06:26:12;;;;;;;7.40;4.15;;;;;;;5.64;80.81;100813.19;4996654;28;20149;-55
2022/12/05 06:28:40;;;;;;;9.45;4.25;;;;;;;5.63;80.54;100811.44;5003993;28;20078;-49
2022/12/05 06:31:09;;;;;;;6.97;3.67;;;;;;;5.65;81.13;100809.78;4999686;28;20057;-52
2022/12/05 06:33:36;;;;;;;7.00;3.10;;;;;;;5.66;80.41;100806.41;4999585;28;20048;-53
2022/12/05 06:36:07;;;;;;;7.38;3.65;;;;;;;5.69;81.43;100809.88;4997819;28;20061;-52
2022/12/05 06:38:34;;;;;;;5.72;3.25;;;;;;;5.68;80.49;100810.72;5003099;28;20069;-54
2022/12/05 06:41:10;;;;;;;6.22;3.22;;;;;;;5.66;79.93;100814.13;4997144;28;20045;-52
2022/12/05 06:43:36;;;;;;;5.45;2.72;;;;;;;5.70;80.80;100821.91;5001468;28;20128;-52
2022/12/05 06:46:05;;;;;;;10.55;3.13;;;;;;;5.71;80.36;100808.25;5005719;28;20310;-53
2022/12/05 06:48:33;;;;;;;7.10;3.60;;;;;;;5.71;80.60;100811.66;4999592;28;20050;-53
2022/12/05 06:51:00;;;;;;;4.63;2.67;;;;;;;5.72;80.85;100815.13;4998932;28;20077;-54
2022/12/05 06:53:27;;;;;;;7.50;3.22;;;;;;;5.73;80.39;100816.84;5001298;28;20173;-53
2022/12/05 06:55:56;;;;;;;4.30;1.90;;;;;;;5.73;80.15;100814.28;4999928;28;20096;-52
2022/12/05 06:58:23;;;;;;;7.18;3.17;;;;;;;5.71;81.79;100823.66;4998950;28;20066;-54
2022/12/05 07:03:37;;;;;;;4.88;2.55;;;;;;;5.72;81.28;100825.41;4999352;28;20049;-51
2022/12/05 07:06:05;;;;;;;9.45;2.83;;;;;;;5.74;81.01;100823.75;5000296;28;20108;-54
2022/12/05 07:08:33;;;;;;;5.35;2.63;;;;;;;5.73;81.00;100828.00;5004221;28;20072;-52
2022/12/05 07:11:00;;;;;;;7.97;2.92;;;;;;;5.71;81.64;100833.94;4998674;28;20046;-51
2022/12/05 07:13:29;;;;;;;4.25;2.10;;;;;;;5.73;80.28;100829.69;4999674;28;20071;-52
2022/12/05 07:15:57;;;;;;;8.10;4.13;;;;;;;5.71;80.82;100842.50;4998975;28;20141;-52
2022/12/05 07:18:25;;;;;;;5.55;2.83;;;;;;;5.72;81.90;100835.69;5002061;28;20064;-53
2022/12/05 07:21:03;;;;;;;10.13;3.00;;;;;;;5.72;82.18;100836.56;5002439;28;20132;-54
2022/12/05 07:23:40;;;;;;;5.32;1.85;;;;;;;5.75;80.67;100833.22;4997284;28;21988;-52
2022/12/05 07:26:09;;;;;;;6.03;3.30;;;;;;;5.74;81.95;100837.47;5008612;28;20053;-53
2022/12/05 07:28:35;;;;;;;3.15;2.00;;;;;;;5.70;80.87;100847.59;5005351;28;20072;-51
2022/12/05 07:31:04;;;;;;;5.55;3.53;;;;;;;5.75;80.61;100840.91;4999083;28;20148;-53
2022/12/05 07:33:31;;;;;;;3.80;2.60;;;;;;;5.71;81.61;100847.66;5001513;28;20460;-53
2022/12/05 07:36:00;;;;;;;5.45;3.00;;;;;;;5.75;80.87;100846.06;4995465;28;20049;-53
2022/12/05 07:38:27;;;;;;;4.47;2.75;;;;;;;5.72;81.74;100840.81;4998694;28;20085;-53
2022/12/05 07:40:54;;;;;;;7.63;2.95;;;;;;;5.74;81.97;100849.47;4999235;28;20055;-52
2022/12/05 07:43:20;;;;;;;5.03;2.47;;;;;;;5.75;80.97;100844.34;5004166;28;20426;-54
2022/12/05 07:45:47;;;;;;;5.15;2.83;;;;;;;5.78;81.02;100853.88;4997005;28;20049;-54
2022/12/05 07:48:14;;;;;;;6.68;2.80;;;;;;;5.79;81.40;100847.91;4996802;28;20160;-52
2022/12/05 07:50:44;;;;;;;7.57;3.63;;;;;;;5.80;81.65;100859.91;4996088;28;20046;-53
2022/12/05 07:53:10;;;;;;;5.43;1.88;;;;;;;5.79;81.91;100864.19;4995410;28;20337;-55
2022/12/05 07:55:38;;;;;;;6.82;3.03;;;;;;;5.81;81.01;100859.06;4993184;28;20139;-53
2022/12/05 07:58:04;;;;;;;11.35;5.20;;;;;;;5.81;81.16;100856.50;4994794;28;20128;-53
2022/12/05 08:00:31;;;;;;;5.13;3.33;;;;;;;5.84;80.85;100861.75;4998359;28;20045;-54
2022/12/05 08:02:58;;;;;;;6.80;3.53;;;;;;;5.84;80.54;100861.75;4995935;28;20686;-51
2022/12/05 08:05:24;;;;;;;11.18;5.22;;;;;;;5.85;80.56;100860.94;4997285;28;20058;-52
2022/12/05 08:07:51;;;;;;;9.48;4.75;;;;;;;5.83;81.40;100865.16;4991145;28;20073;-51
2022/12/05 08:10:18;;;;;;;6.25;3.47;;;;;;;5.81;80.47;100871.94;4998094;28;20078;-49
2022/12/05 08:12:44;;;;;;;7.35;3.50;;;;;;;5.85;81.52;100857.50;4999391;28;20053;-52
2022/12/05 08:15:11;;;;;;;10.88;5.53;;;;;;;5.86;81.56;100875.53;5000892;28;20069;-54
2022/12/05 08:17:37;;;;;;;11.02;4.30;;;;;;;5.87;80.84;100872.13;4999117;28;20268;-55
2022/12/05 08:20:05;;;;;;;26.42;10.45;;;;;;;5.89;80.37;100869.59;4995898;28;20112;-52
2022/12/05 08:22:31;;;;;;;10.07;4.55;;;;;;;5.91;80.00;100884.25;4995779;28;20078;-54
2022/12/05 08:24:58;;;;;;;6.30;3.40;;;;;;;5.91;81.30;100879.09;4994515;28;20745;-51
2022/12/05 08:27:24;;;;;;;7.78;3.28;;;;;;;5.91;81.54;100884.25;4992573;28;20047;-51
2022/12/05 08:29:53;;;;;;;4.50;2.50;;;;;;;5.94;80.33;100885.19;4997826;28;20084;-52
2022/12/05 08:32:20;;;;;;;7.93;3.08;;;;;;;5.95;80.21;100890.38;4997786;28;20061;-52
2022/12/05 08:34:46;;;;;;;8.35;2.67;;;;;;;5.96;80.92;100896.38;4999587;28;20085;-54
2022/12/05 08:37:13;;;;;;;8.00;3.17;;;;;;;5.97;81.58;100895.53;4997458;28;20108;-51
2022/12/05 08:39:39;;;;;;;5.65;1.92;;;;;;;5.96;80.84;100896.38;4999684;28;20594;-50
2022/12/05 08:42:06;;;;;;;6.65;2.50;;;;;;;5.97;79.87;100903.25;4996812;28;20173;-55
2022/12/05 08:44:33;;;;;;;6.50;2.60;;;;;;;5.98;81.32;100894.72;5002116;28;20127;-52
2022/12/05 08:46:59;;;;;;;6.18;3.25;;;;;;;5.98;81.51;100897.31;5002605;28;20553;-52
2022/12/05 08:49:27;;;;;;;6.40;3.28;;;;;;;5.98;79.81;100903.28;5002449;28;20508;-52
2022/12/05 08:51:53;;;;;;;7.30;2.92;;;;;;;5.97;80.92;100903.25;5001307;28;20128;-52
2022/12/05 08:54:20;;;;;;;7.32;3.47;;;;;;;5.98;80.04;100905.88;5001934;28;20065;-53
2022/12/05 08:56:50;;;;;;;7.78;2.92;;;;;;;5.99;80.29;100906.75;5003647;28;20079;-52
2022/12/05 08:59:17;;;;;;;5.90;2.35;;;;;;;5.98;80.89;100910.16;5002364;28;22244;-53
2022/12/05 09:01:43;;;;;;;7.25;2.95;;;;;;;5.98;80.33;100917.88;5002898;28;20049;-52
2022/12/05 09:04:11;;;;;;;6.18;2.10;;;;;;;5.98;81.32;100920.44;5000898;28;20054;-54
2022/12/05 09:06:39;;;;;;;4.30;2.13;;;;;;;5.99;79.91;100917.03;5003205;28;20046;-51
2022/12/05 09:09:07;;;;;;;9.73;3.55;;;;;;;6.00;80.88;100929.06;5004174;28;20081;-51
2022/12/05 09:11:39;;;;;;;4.95;3.10;;;;;;;6.01;80.70;100928.25;5001515;28;20129;-52
2022/12/05 09:14:06;;;;;;;8.30;2.50;;;;;;;6.01;79.89;100933.41;5002218;28;20042;-55
2022/12/05 09:16:35;;;;;;;5.20;2.67;;;;;;;6.03;81.10;100932.66;5004351;28;20067;-52
2022/12/05 09:19:09;;;;;;;7.88;2.65;;;;;;;6.07;81.11;100937.84;5000637;28;20144;-51
2022/12/05 09:21:36;;;;;;;11.32;2.83;;;;;;;6.09;80.38;100938.78;5001665;28;20061;-52
2022/12/05 09:24:02;;;;;;;9.98;3.20;;;;;;;6.10;81.20;100930.25;5001816;28;20045;-50
2022/12/05 09:26:29;;;;;;;8.05;2.65;;;;;;;6.12;80.26;100938.88;5001171;28;20046;-52
2022/12/05 09:28:56;;;;;;;4.35;2.35;;;;;;;6.13;80.61;100938.94;5003913;28;20096;-51
2022/12/05 09:31:25;;;;;;;5.30;2.35;;;;;;;6.16;80.13;100940.72;5004079;28;20042;-52
2022/12/05 09:33:52;;;;;;;8.93;3.20;;;;;;;6.18;80.51;100936.47;5004191;28;20046;-51
2022/12/05 09:36:22;;;;;;;4.72;2.83;;;;;;;6.20;79.84;100946.81;5005631;28;20038;-52
2022/12/05 09:38:49;;;;;;;8.25;2.78;;;;;;;6.22;79.61;100946.06;5005731;28;20092;-53
2022/12/05 09:44:04;;;;;;;4.38;3.20;;;;;;;6.25;80.55;100947.84;5026258;28;20405;-54
2022/12/05 09:49:22;;;;;;;11.57;3.45;;;;;;;6.30;80.84;100951.41;5025251;27;20928;-52
2022/12/05 09:51:50;;;;;;;8.27;2.88;;;;;;;6.28;80.05;100950.50;4994321;28;20077;-55
2022/12/05 09:54:22;;;;;;;5.88;2.30;;;;;;;6.29;79.69;100960.84;4992851;28;20054;-54
2022/12/05 09:56:51;;;;;;;7.53;2.67;;;;;;;6.31;80.64;100963.44;4995364;28;20062;-52
2022/12/05 09:59:19;;;;;;;5.97;2.30;;;;;;;6.31;79.18;100960.88;4997669;28;20050;-54
2022/12/05 10:10:13;;;;;;;10.82;5.10;;;;;;;6.71;79.11;100960.28;5093466;27;20389;-53
2022/12/05 10:18:39;;;;;;;5.78;1.90;;;;;;;6.46;80.48;100968.19;5051559;28;20389;-52
2022/12/05 10:24:14;;;;;;;6.60;2.15;;;;;;;6.51;80.19;100965.72;5057719;27;20403;-51
2022/12/05 10:26:45;;;;;;;5.65;2.97;;;;;;;6.53;79.69;100969.25;5019912;28;20493;-53
2022/12/05 10:32:17;;;;;;;5.70;3.05;;;;;;;6.59;80.45;100959.13;5006148;28;20414;-54
2022/12/05 10:34:45;;;;;;;8.68;3.13;;;;;;;6.63;80.53;100957.50;4995380;28;20100;-50
2022/12/05 10:39:49;;;;;;;8.93;1.75;;;;;;;6.66;79.70;100963.59;5041874;28;20755;-52
2022/12/05 10:44:58;;;;;;;7.75;2.60;;;;;;;6.71;79.51;100968.00;5042822;28;20408;-51
2022/12/05 10:47:25;;;;;;;4.93;2.45;;;;;;;6.69;79.83;100968.84;5047788;28;20520;-51
2022/12/05 10:49:53;;;;;;;9.38;3.25;;;;;;;6.71;79.86;100975.72;5035764;28;20059;-53
2022/12/05 10:52:19;;;;;;;7.57;2.10;;;;;;;6.69;80.55;100976.56;5042056;28;20132;-54
2022/12/05 10:54:53;;;;;;;7.05;2.25;;;;;;;6.73;78.93;100974.06;5041494;28;20085;-53
2022/12/05 10:57:24;;;;;;;11.43;3.28;;;;;;;6.73;79.49;100971.50;5039534;28;20076;-55
2022/12/05 10:59:51;;;;;;;5.60;2.35;;;;;;;6.76;79.83;100961.28;5038738;28;21249;-52
2022/12/05 11:04:58;;;;;;;6.43;3.53;;;;;;;6.82;80.20;100967.47;5028936;27;20405;-52
2022/12/05 11:07:32;;;;;;;4.60;2.97;;;;;;;6.84;79.15;100972.69;5016517;28;20046;-55
2022/12/05 11:10:01;;;;;;;7.72;3.42;;;;;;;6.84;80.27;100972.69;5018063;28;20041;-53
2022/12/05 11:12:37;;;;;;;11.93;3.67;;;;;;;6.81;79.62;100977.72;5015021;28;20053;-53
2022/12/05 11:15:21;;;;;;;5.25;3.05;;;;;;;6.79;79.78;100969.13;5013237;28;20128;-54
2022/12/05 11:17:50;;;;;;;6.13;3.03;;;;;;;6.81;79.36;100968.31;5016007;28;20049;-50
2022/12/05 11:22:55;;;;;;;3.40;1.73;;;;;;;6.86;80.49;100975.28;5022818;27;20440;-55
2022/12/05 11:25:30;;;;;;;6.63;2.60;;;;;;;6.89;79.00;100973.66;5018559;28;20080;-52
2022/12/05 11:28:00;;;;;;;5.70;2.15;;;;;;;6.92;80.56;100971.19;5020153;28;20042;-52
2022/12/05 11:30:28;;;;;;;4.68;2.03;;;;;;;6.96;80.32;100972.16;5017221;28;20101;-53
2022/12/05 11:35:53;;;;;;;7.38;2.70;;;;;;;7.01;79.98;100972.25;5061445;28;20391;-52
2022/12/05 11:38:23;;;;;;;8.27;2.72;;;;;;;7.06;80.72;100968.97;5022946;28;20148;-52
2022/12/05 11:46:39;;;;;;;8.68;2.35;;;;;;;7.20;79.85;100973.63;5050376;27;20397;-54
2022/12/05 11:51:59;;;;;;;5.90;2.78;;;;;;;7.30;79.37;100969.59;5111486;27;20403;-52
2022/12/05 11:58:01;;;;;;;10.45;2.55;;;;;;;7.32;80.11;100971.38;5063026;27;20388;-55
2022/12/05 12:06:11;;;;;;;7.50;2.67;;;;;;;7.38;79.50;100973.22;5057223;28;20395;-54
2022/12/05 12:11:47;;;;;;;5.32;1.92;;;;;;;7.42;78.81;100967.31;5041756;27;20408;-55
2022/12/05 12:17:17;;;;;;;5.07;2.60;;;;;;;7.39;79.36;100972.38;4992703;28;20420;-55
2022/12/05 12:28:28;;;;;;;5.18;2.50;;;;;;;7.37;78.73;100974.06;5038667;28;20409;-55
2022/12/05 12:33:39;;;;;;;6.50;3.58;;;;;;;7.51;78.94;100964.09;5048389;27;20387;-53
2022/12/05 12:36:21;;;;;;;8.15;3.53;;;;;;;7.53;78.65;100962.41;5015618;28;20049;-55
2022/12/05 12:41:55;;;;;;;6.43;1.95;;;;;;;7.57;78.83;100968.53;5045989;27;20900;-52
2022/12/05 12:45:02;;;;;;;6.82;1.73;;;;;;;7.56;79.31;100964.19;5001232;28;20058;-54
2022/12/05 12:50:27;;;;;;;10.05;4.07;;;;;;;7.59;79.05;100964.28;5018817;27;20410;-55
2022/12/05 12:56:37;;;;;;;6.18;1.80;;;;;;;7.57;78.44;100965.97;5081376;27;20976;-51
2022/12/05 12:59:33;;;;;;;7.82;2.20;;;;;;;7.57;79.61;100960.81;5063189;28;20135;-51
2022/12/05 13:02:12;;;;;;;7.18;2.30;;;;;;;7.61;78.29;100962.63;5074959;28;20048;-52
2022/12/05 13:04:48;;;;;;;5.22;1.40;;;;;;;7.63;78.59;100958.34;5073057;28;20928;-54
2022/12/05 13:07:23;;;;;;;6.22;2.45;;;;;;;7.68;79.04;100964.50;5064243;28;20512;-53
2022/12/05 13:09:57;;;;;;;6.90;2.20;;;;;;;7.72;78.44;100955.13;5062316;28;20097;-54
2022/12/05 13:12:28;;;;;;;8.18;2.38;;;;;;;7.74;78.80;100963.78;5073619;28;20072;-55
2022/12/05 13:15:03;;;;;;;6.53;2.80;;;;;;;7.75;78.34;100959.47;5071794;28;20128;-54
2022/12/05 13:17:31;;;;;;;4.43;2.67;;;;;;;7.77;78.85;100948.34;5072389;28;20083;-52
2022/12/05 13:19:59;;;;;;;8.50;2.17;;;;;;;7.81;78.62;100964.78;5075171;28;20138;-53
2022/12/05 13:22:27;;;;;;;6.55;1.65;;;;;;;7.79;77.73;100956.13;5072528;28;20083;-56
2022/12/05 13:24:55;;;;;;;4.07;1.88;;;;;;;7.78;77.87;100955.28;5075372;28;20109;-53
2022/12/05 13:27:26;;;;;;;7.53;2.08;;;;;;;7.70;77.86;100951.66;5074880;28;20044;-52
2022/12/05 13:43:27;;;;;;;8.43;2.30;;;;;;;7.79;78.43;100963.88;5048416;28;20655;-53
2022/12/05 13:48:37;;;;;;;7.22;3.28;;;;;;;7.86;77.44;100952.88;5028913;28;20909;-56
2022/12/05 13:51:10;;;;;;;6.93;3.78;;;;;;;7.86;77.37;100957.19;4979692;28;20114;-55
2022/12/05 13:53:41;;;;;;;5.88;3.25;;;;;;;7.84;78.55;100959.72;4973745;28;20765;-53
2022/12/05 14:04:22;;;;;;;7.93;2.72;;;;;;;7.89;77.54;100958.09;5017971;27;20422;-55
2022/12/05 14:09:47;;;;;;;11.15;3.58;;;;;;;7.83;78.59;100957.94;5045239;28;20396;-55
2022/12/05 14:15:00;;;;;;;6.20;1.98;;;;;;;7.74;78.98;100957.75;5056512;28;20415;-52
2022/12/05 14:17:31;;;;;;;5.72;2.40;;;;;;;7.62;79.14;100954.03;5015876;28;20112;-52
2022/12/05 14:22:56;;;;;;;5.50;2.33;;;;;;;7.55;78.34;100962.44;5084720;27;20390;-55
2022/12/05 14:28:42;;;;;;;4.03;0.95;;;;;;;7.34;77.61;100948.22;5029075;28;20750;-51
2022/12/05 14:34:15;;;;;;;3.75;1.15;;;;;;;7.27;77.57;100956.63;5036086;27;20404;-54
2022/12/05 14:37:05;;;;;;;2.70;0.70;;;;;;;7.19;78.52;100954.72;5017038;28;20072;-54
2022/12/05 14:42:37;;;;;;;3.47;1.67;;;;;;;7.14;77.54;100953.72;5074836;27;20385;-53